sensor_id;sensor_type;location;lat;lon;timestamp;temperature;humidity
75685;HTU21D;64298;46.050;38.164;2023-01-28T00:01:13;-0.50;70.07
75685;HTU21D;64298;46.050;38.164;2023-01-28T00:03:39;-0.51;70.16
75685;HTU21D;64298;46.050;38.164;2023-01-28T00:06:11;-0.52;70.26
75685;HTU21D;64298;46.050;38.164;2023-01-28T00:08:37;-0.51;70.23
75685;HTU21D;64298;46.050;38.164;2023-01-28T00:11:05;-0.52;70.28
75685;HTU21D;64298;46.050;38.164;2023-01-28T00:13:32;-0.55;70.28
75685;HTU21D;64298;46.050;38.164;2023-01-28T00:16:00;-0.52;70.30
75685;HTU21D;64298;46.050;38.164;2023-01-28T00:18:27;-0.52;70.29
75685;HTU21D;64298;46.050;38.164;2023-01-28T00:23:24;-0.47;70.18
75685;HTU21D;64298;46.050;38.164;2023-01-28T00:25:50;-0.50;70.25
75685;HTU21D;64298;46.050;38.164;2023-01-28T00:28:16;-0.52;70.29
75685;HTU21D;64298;46.050;38.164;2023-01-28T00:30:42;-0.53;70.37
75685;HTU21D;64298;46.050;38.164;2023-01-28T00:33:07;-0.54;70.50
75685;HTU21D;64298;46.050;38.164;2023-01-28T00:35:33;-0.54;70.51
75685;HTU21D;64298;46.050;38.164;2023-01-28T00:38:02;-0.54;70.57
75685;HTU21D;64298;46.050;38.164;2023-01-28T00:40:29;-0.55;70.58
75685;HTU21D;64298;46.050;38.164;2023-01-28T00:42:55;-0.56;70.62
75685;HTU21D;64298;46.050;38.164;2023-01-28T00:45:21;-0.56;70.61
75685;HTU21D;64298;46.050;38.164;2023-01-28T00:47:47;-0.56;70.71
75685;HTU21D;64298;46.050;38.164;2023-01-28T00:50:14;-0.54;70.70
75685;HTU21D;64298;46.050;38.164;2023-01-28T00:52:40;-0.54;70.70
75685;HTU21D;64298;46.050;38.164;2023-01-28T00:55:06;-0.52;70.68
75685;HTU21D;64298;46.050;38.164;2023-01-28T00:57:32;-0.52;70.71
75685;HTU21D;64298;46.050;38.164;2023-01-28T00:59:59;-0.52;70.80
75685;HTU21D;64298;46.050;38.164;2023-01-28T01:02:26;-0.51;70.79
75685;HTU21D;64298;46.050;38.164;2023-01-28T01:04:52;-0.54;70.89
75685;HTU21D;64298;46.050;38.164;2023-01-28T01:07:27;-0.56;71.03
75685;HTU21D;64298;46.050;38.164;2023-01-28T01:09:58;-0.55;71.03
75685;HTU21D;64298;46.050;38.164;2023-01-28T01:12:25;-0.57;71.21
75685;HTU21D;64298;46.050;38.164;2023-01-28T01:14:51;-0.57;71.20
75685;HTU21D;64298;46.050;38.164;2023-01-28T01:17:17;-0.55;71.30
75685;HTU21D;64298;46.050;38.164;2023-01-28T01:19:43;-0.56;71.32
75685;HTU21D;64298;46.050;38.164;2023-01-28T01:22:09;-0.56;71.37
75685;HTU21D;64298;46.050;38.164;2023-01-28T01:24:35;-0.56;71.42
75685;HTU21D;64298;46.050;38.164;2023-01-28T01:27:00;-0.57;71.46
75685;HTU21D;64298;46.050;38.164;2023-01-28T01:29:27;-0.57;71.51
75685;HTU21D;64298;46.050;38.164;2023-01-28T01:31:53;-0.55;71.56
75685;HTU21D;64298;46.050;38.164;2023-01-28T01:34:20;-0.56;71.55
75685;HTU21D;64298;46.050;38.164;2023-01-28T01:36:47;-0.58;71.55
75685;HTU21D;64298;46.050;38.164;2023-01-28T01:39:13;-0.60;71.66
75685;HTU21D;64298;46.050;38.164;2023-01-28T01:41:39;-0.62;71.75
75685;HTU21D;64298;46.050;38.164;2023-01-28T01:44:06;-0.64;71.77
75685;HTU21D;64298;46.050;38.164;2023-01-28T01:49:26;-0.66;71.94
75685;HTU21D;64298;46.050;38.164;2023-01-28T01:52:00;-0.65;72.05
75685;HTU21D;64298;46.050;38.164;2023-01-28T01:54:30;-0.68;72.22
75685;HTU21D;64298;46.050;38.164;2023-01-28T01:56:58;-0.68;72.31
75685;HTU21D;64298;46.050;38.164;2023-01-28T01:59:26;-0.68;72.40
75685;HTU21D;64298;46.050;38.164;2023-01-28T02:01:53;-0.71;72.49
75685;HTU21D;64298;46.050;38.164;2023-01-28T02:04:40;-0.73;72.55
75685;HTU21D;64298;46.050;38.164;2023-01-28T02:07:08;-0.71;72.67
75685;HTU21D;64298;46.050;38.164;2023-01-28T02:09:35;-0.71;72.63
75685;HTU21D;64298;46.050;38.164;2023-01-28T02:12:23;-0.69;72.55
75685;HTU21D;64298;46.050;38.164;2023-01-28T02:14:59;-0.68;72.49
75685;HTU21D;64298;46.050;38.164;2023-01-28T02:17:26;-0.66;72.46
75685;HTU21D;64298;46.050;38.164;2023-01-28T02:19:57;-0.64;72.42
75685;HTU21D;64298;46.050;38.164;2023-01-28T02:31:31;-0.65;72.49
75685;HTU21D;64298;46.050;38.164;2023-01-28T02:34:24;-0.64;72.52
75685;HTU21D;64298;46.050;38.164;2023-01-28T02:37:01;-0.65;72.62
75685;HTU21D;64298;46.050;38.164;2023-01-28T02:39:34;-0.65;72.60
75685;HTU21D;64298;46.050;38.164;2023-01-28T02:42:29;-0.60;72.55
75685;HTU21D;64298;46.050;38.164;2023-01-28T02:44:56;-0.64;72.64
75685;HTU21D;64298;46.050;38.164;2023-01-28T02:47:22;-0.64;72.72
75685;HTU21D;64298;46.050;38.164;2023-01-28T02:50:16;-0.65;72.77
75685;HTU21D;64298;46.050;38.164;2023-01-28T02:55:46;-0.61;72.70
75685;HTU21D;64298;46.050;38.164;2023-01-28T03:01:27;-0.62;72.96
75685;HTU21D;64298;46.050;38.164;2023-01-28T03:04:14;-0.65;73.04
75685;HTU21D;64298;46.050;38.164;2023-01-28T03:06:47;-0.67;73.22
75685;HTU21D;64298;46.050;38.164;2023-01-28T03:09:15;-0.66;73.21
75685;HTU21D;64298;46.050;38.164;2023-01-28T03:11:55;-0.66;73.25
75685;HTU21D;64298;46.050;38.164;2023-01-28T03:14:40;-0.64;73.11
75685;HTU21D;64298;46.050;38.164;2023-01-28T03:17:57;-0.68;73.38
75685;HTU21D;64298;46.050;38.164;2023-01-28T03:24:02;-0.72;73.56
75685;HTU21D;64298;46.050;38.164;2023-01-28T03:27:31;-0.71;73.44
75685;HTU21D;64298;46.050;38.164;2023-01-28T03:30:23;-0.70;73.46
75685;HTU21D;64298;46.050;38.164;2023-01-28T03:33:15;-0.70;73.50
75685;HTU21D;64298;46.050;38.164;2023-01-28T03:36:19;-0.70;73.61
75685;HTU21D;64298;46.050;38.164;2023-01-28T03:39:05;-0.72;73.64
75685;HTU21D;64298;46.050;38.164;2023-01-28T03:41:31;-0.71;73.57
75685;HTU21D;64298;46.050;38.164;2023-01-28T03:43:58;-0.69;73.54
75685;HTU21D;64298;46.050;38.164;2023-01-28T03:46:45;-0.68;73.54
75685;HTU21D;64298;46.050;38.164;2023-01-28T03:49:12;-0.68;73.56
75685;HTU21D;64298;46.050;38.164;2023-01-28T03:51:57;-0.68;73.63
75685;HTU21D;64298;46.050;38.164;2023-01-28T03:54:23;-0.71;73.77
75685;HTU21D;64298;46.050;38.164;2023-01-28T03:56:49;-0.73;73.86
75685;HTU21D;64298;46.050;38.164;2023-01-28T03:59:15;-0.73;73.93
75685;HTU21D;64298;46.050;38.164;2023-01-28T04:01:41;-0.74;73.86
75685;HTU21D;64298;46.050;38.164;2023-01-28T04:04:07;-0.72;73.92
75685;HTU21D;64298;46.050;38.164;2023-01-28T04:06:52;-0.72;74.00
75685;HTU21D;64298;46.050;38.164;2023-01-28T04:09:48;-0.71;73.96
75685;HTU21D;64298;46.050;38.164;2023-01-28T04:12:43;-0.72;73.97
75685;HTU21D;64298;46.050;38.164;2023-01-28T04:15:10;-0.72;73.99
75685;HTU21D;64298;46.050;38.164;2023-01-28T04:17:45;-0.74;74.07
75685;HTU21D;64298;46.050;38.164;2023-01-28T04:20:17;-0.72;74.11
75685;HTU21D;64298;46.050;38.164;2023-01-28T04:22:43;-0.71;74.14
75685;HTU21D;64298;46.050;38.164;2023-01-28T04:25:10;-0.70;74.02
75685;HTU21D;64298;46.050;38.164;2023-01-28T04:27:36;-0.71;74.02
75685;HTU21D;64298;46.050;38.164;2023-01-28T04:30:13;-0.69;74.07
75685;HTU21D;64298;46.050;38.164;2023-01-28T04:32:48;-0.66;73.97
75685;HTU21D;64298;46.050;38.164;2023-01-28T04:35:37;-0.66;73.93
75685;HTU21D;64298;46.050;38.164;2023-01-28T04:38:10;-0.65;73.90
75685;HTU21D;64298;46.050;38.164;2023-01-28T04:40:57;-0.65;73.91
75685;HTU21D;64298;46.050;38.164;2023-01-28T04:43:26;-0.62;73.82
75685;HTU21D;64298;46.050;38.164;2023-01-28T04:46:07;-0.60;73.76
75685;HTU21D;64298;46.050;38.164;2023-01-28T04:48:53;-0.67;73.89
75685;HTU21D;64298;46.050;38.164;2023-01-28T04:51:37;-0.67;73.93
75685;HTU21D;64298;46.050;38.164;2023-01-28T04:54:22;-0.67;73.95
75685;HTU21D;64298;46.050;38.164;2023-01-28T04:56:48;-0.66;73.97
75685;HTU21D;64298;46.050;38.164;2023-01-28T04:59:14;-0.62;73.92
75685;HTU21D;64298;46.050;38.164;2023-01-28T05:01:41;-0.61;73.90
75685;HTU21D;64298;46.050;38.164;2023-01-28T05:04:07;-0.61;73.87
75685;HTU21D;64298;46.050;38.164;2023-01-28T05:06:36;-0.59;73.80
75685;HTU21D;64298;46.050;38.164;2023-01-28T05:09:17;-0.57;73.77
75685;HTU21D;64298;46.050;38.164;2023-01-28T05:11:44;-0.57;73.72
75685;HTU21D;64298;46.050;38.164;2023-01-28T05:14:10;-0.56;73.68
75685;HTU21D;64298;46.050;38.164;2023-01-28T05:16:43;-0.53;73.67
75685;HTU21D;64298;46.050;38.164;2023-01-28T05:19:11;-0.51;73.62
75685;HTU21D;64298;46.050;38.164;2023-01-28T05:21:44;-0.52;73.63
75685;HTU21D;64298;46.050;38.164;2023-01-28T05:24:33;-0.50;73.63
75685;HTU21D;64298;46.050;38.164;2023-01-28T05:27:00;-0.51;73.61
75685;HTU21D;64298;46.050;38.164;2023-01-28T05:29:26;-0.49;73.57
75685;HTU21D;64298;46.050;38.164;2023-01-28T05:31:52;-0.47;73.58
75685;HTU21D;64298;46.050;38.164;2023-01-28T05:34:18;-0.44;73.51
75685;HTU21D;64298;46.050;38.164;2023-01-28T05:36:44;-0.40;73.44
75685;HTU21D;64298;46.050;38.164;2023-01-28T05:39:35;-0.37;73.38
75685;HTU21D;64298;46.050;38.164;2023-01-28T05:42:20;-0.36;73.30
75685;HTU21D;64298;46.050;38.164;2023-01-28T05:44:51;-0.37;73.38
75685;HTU21D;64298;46.050;38.164;2023-01-28T05:47:55;-0.36;73.32
75685;HTU21D;64298;46.050;38.164;2023-01-28T05:50:47;-0.37;73.38
75685;HTU21D;64298;46.050;38.164;2023-01-28T05:53:33;-0.37;73.40
75685;HTU21D;64298;46.050;38.164;2023-01-28T05:56:00;-0.37;73.37
75685;HTU21D;64298;46.050;38.164;2023-01-28T05:58:27;-0.36;73.48
75685;HTU21D;64298;46.050;38.164;2023-01-28T06:00:59;-0.35;73.44
75685;HTU21D;64298;46.050;38.164;2023-01-28T06:03:34;-0.29;73.36
75685;HTU21D;64298;46.050;38.164;2023-01-28T06:06:00;-0.28;73.32
75685;HTU21D;64298;46.050;38.164;2023-01-28T06:08:26;-0.29;73.33
75685;HTU21D;64298;46.050;38.164;2023-01-28T06:10:52;-0.28;73.35
75685;HTU21D;64298;46.050;38.164;2023-01-28T06:13:20;-0.31;73.48
75685;HTU21D;64298;46.050;38.164;2023-01-28T06:16:05;-0.32;73.55
75685;HTU21D;64298;46.050;38.164;2023-01-28T06:18:58;-0.28;73.56
75685;HTU21D;64298;46.050;38.164;2023-01-28T06:21:24;-0.26;73.60
75685;HTU21D;64298;46.050;38.164;2023-01-28T06:23:50;-0.23;73.51
75685;HTU21D;64298;46.050;38.164;2023-01-28T06:26:16;-0.19;73.47
75685;HTU21D;64298;46.050;38.164;2023-01-28T06:28:44;-0.19;73.44
75685;HTU21D;64298;46.050;38.164;2023-01-28T06:31:10;-0.13;73.40
75685;HTU21D;64298;46.050;38.164;2023-01-28T06:33:36;-0.12;73.32
75685;HTU21D;64298;46.050;38.164;2023-01-28T06:36:03;-0.09;73.28
75685;HTU21D;64298;46.050;38.164;2023-01-28T06:38:29;-0.07;73.22
75685;HTU21D;64298;46.050;38.164;2023-01-28T06:40:55;-0.02;73.15
75685;HTU21D;64298;46.050;38.164;2023-01-28T06:43:23;0.04;73.08
75685;HTU21D;64298;46.050;38.164;2023-01-28T06:45:56;0.09;72.96
75685;HTU21D;64298;46.050;38.164;2023-01-28T06:48:22;0.13;72.87
75685;HTU21D;64298;46.050;38.164;2023-01-28T06:50:50;0.17;72.74
75685;HTU21D;64298;46.050;38.164;2023-01-28T06:53:17;0.20;72.64
75685;HTU21D;64298;46.050;38.164;2023-01-28T06:55:43;0.20;72.45
75685;HTU21D;64298;46.050;38.164;2023-01-28T06:58:09;0.22;72.40
75685;HTU21D;64298;46.050;38.164;2023-01-28T07:00:35;0.23;72.27
75685;HTU21D;64298;46.050;38.164;2023-01-28T07:03:03;0.23;72.24
75685;HTU21D;64298;46.050;38.164;2023-01-28T07:05:29;0.29;72.26
75685;HTU21D;64298;46.050;38.164;2023-01-28T07:07:54;0.37;72.21
75685;HTU21D;64298;46.050;38.164;2023-01-28T07:10:20;0.40;72.04
75685;HTU21D;64298;46.050;38.164;2023-01-28T07:12:46;0.45;71.83
75685;HTU21D;64298;46.050;38.164;2023-01-28T07:15:13;0.45;71.76
75685;HTU21D;64298;46.050;38.164;2023-01-28T07:17:40;0.46;71.61
75685;HTU21D;64298;46.050;38.164;2023-01-28T07:20:08;0.44;71.57
75685;HTU21D;64298;46.050;38.164;2023-01-28T07:22:35;0.47;71.61
75685;HTU21D;64298;46.050;38.164;2023-01-28T07:25:02;0.48;71.60
75685;HTU21D;64298;46.050;38.164;2023-01-28T07:27:28;0.53;71.67
75685;HTU21D;64298;46.050;38.164;2023-01-28T07:29:54;0.58;71.47
75685;HTU21D;64298;46.050;38.164;2023-01-28T07:32:20;0.60;71.42
75685;HTU21D;64298;46.050;38.164;2023-01-28T07:34:46;0.63;71.32
75685;HTU21D;64298;46.050;38.164;2023-01-28T07:37:12;0.66;71.20
75685;HTU21D;64298;46.050;38.164;2023-01-28T07:39:56;0.74;71.10
75685;HTU21D;64298;46.050;38.164;2023-01-28T07:42:22;0.80;70.89
75685;HTU21D;64298;46.050;38.164;2023-01-28T07:44:50;0.83;70.65
75685;HTU21D;64298;46.050;38.164;2023-01-28T07:47:16;0.89;70.61
75685;HTU21D;64298;46.050;38.164;2023-01-28T07:49:44;0.91;70.51
75685;HTU21D;64298;46.050;38.164;2023-01-28T07:52:10;0.99;70.48
75685;HTU21D;64298;46.050;38.164;2023-01-28T07:54:36;1.06;70.34
75685;HTU21D;64298;46.050;38.164;2023-01-28T07:57:06;1.12;70.16
75685;HTU21D;64298;46.050;38.164;2023-01-28T07:59:35;1.19;70.10
75685;HTU21D;64298;46.050;38.164;2023-01-28T08:02:01;1.22;69.70
75685;HTU21D;64298;46.050;38.164;2023-01-28T08:04:27;1.22;69.70
75685;HTU21D;64298;46.050;38.164;2023-01-28T08:06:53;1.26;69.70
75685;HTU21D;64298;46.050;38.164;2023-01-28T08:09:19;1.33;69.71
75685;HTU21D;64298;46.050;38.164;2023-01-28T08:11:44;1.36;69.52
75685;HTU21D;64298;46.050;38.164;2023-01-28T08:14:10;1.33;69.39
75685;HTU21D;64298;46.050;38.164;2023-01-28T08:16:36;1.34;69.42
75685;HTU21D;64298;46.050;38.164;2023-01-28T08:19:02;1.35;69.49
75685;HTU21D;64298;46.050;38.164;2023-01-28T08:21:28;1.41;69.45
75685;HTU21D;64298;46.050;38.164;2023-01-28T08:23:54;1.43;69.10
75685;HTU21D;64298;46.050;38.164;2023-01-28T08:26:21;1.47;69.10
75685;HTU21D;64298;46.050;38.164;2023-01-28T08:28:47;1.47;68.87
75685;HTU21D;64298;46.050;38.164;2023-01-28T08:31:13;1.51;68.76
75685;HTU21D;64298;46.050;38.164;2023-01-28T08:33:39;1.56;68.52
75685;HTU21D;64298;46.050;38.164;2023-01-28T08:36:05;1.62;68.52
75685;HTU21D;64298;46.050;38.164;2023-01-28T08:38:31;1.68;68.39
75685;HTU21D;64298;46.050;38.164;2023-01-28T08:40:57;1.76;68.29
75685;HTU21D;64298;46.050;38.164;2023-01-28T08:43:24;1.78;67.92
75685;HTU21D;64298;46.050;38.164;2023-01-28T08:45:50;1.78;67.89
75685;HTU21D;64298;46.050;38.164;2023-01-28T08:48:18;1.78;67.84
75685;HTU21D;64298;46.050;38.164;2023-01-28T08:50:44;1.79;67.75
75685;HTU21D;64298;46.050;38.164;2023-01-28T08:53:15;1.81;67.56
75685;HTU21D;64298;46.050;38.164;2023-01-28T08:55:42;1.81;67.51
75685;HTU21D;64298;46.050;38.164;2023-01-28T08:58:14;1.86;67.61
75685;HTU21D;64298;46.050;38.164;2023-01-28T09:00:41;1.96;67.66
75685;HTU21D;64298;46.050;38.164;2023-01-28T09:03:07;2.00;67.52
75685;HTU21D;64298;46.050;38.164;2023-01-28T09:05:34;2.09;67.32
75685;HTU21D;64298;46.050;38.164;2023-01-28T09:08:05;2.13;67.14
75685;HTU21D;64298;46.050;38.164;2023-01-28T09:10:31;2.15;67.07
75685;HTU21D;64298;46.050;38.164;2023-01-28T09:12:58;2.15;66.87
75685;HTU21D;64298;46.050;38.164;2023-01-28T09:15:23;2.16;66.90
75685;HTU21D;64298;46.050;38.164;2023-01-28T09:17:55;2.21;67.01
75685;HTU21D;64298;46.050;38.164;2023-01-28T09:20:21;2.27;66.94
75685;HTU21D;64298;46.050;38.164;2023-01-28T09:22:47;2.30;66.72
75685;HTU21D;64298;46.050;38.164;2023-01-28T09:25:13;2.31;66.51
75685;HTU21D;64298;46.050;38.164;2023-01-28T09:27:39;2.34;66.85
75685;HTU21D;64298;46.050;38.164;2023-01-28T09:30:24;2.41;66.95
75685;HTU21D;64298;46.050;38.164;2023-01-28T09:32:51;2.49;66.63
75685;HTU21D;64298;46.050;38.164;2023-01-28T09:35:17;2.52;66.43
75685;HTU21D;64298;46.050;38.164;2023-01-28T09:37:44;2.52;66.33
75685;HTU21D;64298;46.050;38.164;2023-01-28T09:40:27;2.49;66.19
75685;HTU21D;64298;46.050;38.164;2023-01-28T09:43:25;2.51;66.33
75685;HTU21D;64298;46.050;38.164;2023-01-28T09:45:57;2.55;66.44
75685;HTU21D;64298;46.050;38.164;2023-01-28T09:48:29;2.59;66.44
75685;HTU21D;64298;46.050;38.164;2023-01-28T09:50:57;2.62;66.09
75685;HTU21D;64298;46.050;38.164;2023-01-28T09:53:28;2.60;65.96
75685;HTU21D;64298;46.050;38.164;2023-01-28T09:56:04;2.62;65.98
75685;HTU21D;64298;46.050;38.164;2023-01-28T09:58:50;2.62;66.07
75685;HTU21D;64298;46.050;38.164;2023-01-28T10:01:36;2.66;66.17
75685;HTU21D;64298;46.050;38.164;2023-01-28T10:12:39;2.76;66.01
75685;HTU21D;64298;46.050;38.164;2023-01-28T10:18:07;2.80;65.83
75685;HTU21D;64298;46.050;38.164;2023-01-28T10:20:50;2.86;65.91
75685;HTU21D;64298;46.050;38.164;2023-01-28T10:25:50;2.84;65.88
75685;HTU21D;64298;46.050;38.164;2023-01-28T10:28:27;2.82;65.89
75685;HTU21D;64298;46.050;38.164;2023-01-28T10:30:54;2.81;65.96
75685;HTU21D;64298;46.050;38.164;2023-01-28T10:35:49;2.89;66.00
75685;HTU21D;64298;46.050;38.164;2023-01-28T10:38:20;2.91;66.07
75685;HTU21D;64298;46.050;38.164;2023-01-28T10:40:47;2.96;66.04
75685;HTU21D;64298;46.050;38.164;2023-01-28T10:43:15;3.00;66.11
75685;HTU21D;64298;46.050;38.164;2023-01-28T10:48:29;3.05;66.10
75685;HTU21D;64298;46.050;38.164;2023-01-28T10:50:57;3.05;66.06
75685;HTU21D;64298;46.050;38.164;2023-01-28T10:53:37;3.05;66.20
75685;HTU21D;64298;46.050;38.164;2023-01-28T10:56:06;3.04;66.22
75685;HTU21D;64298;46.050;38.164;2023-01-28T10:58:36;3.01;66.27
75685;HTU21D;64298;46.050;38.164;2023-01-28T11:02:01;3.00;66.46
75685;HTU21D;64298;46.050;38.164;2023-01-28T11:04:29;3.03;66.52
75685;HTU21D;64298;46.050;38.164;2023-01-28T11:06:59;3.02;66.59
75685;HTU21D;64298;46.050;38.164;2023-01-28T11:09:34;3.04;66.69
75685;HTU21D;64298;46.050;38.164;2023-01-28T11:12:29;3.05;66.78
75685;HTU21D;64298;46.050;38.164;2023-01-28T11:14:58;3.08;66.82
75685;HTU21D;64298;46.050;38.164;2023-01-28T11:17:27;3.09;66.88
75685;HTU21D;64298;46.050;38.164;2023-01-28T11:19:59;3.13;66.90
75685;HTU21D;64298;46.050;38.164;2023-01-28T11:25:01;3.18;66.93
75685;HTU21D;64298;46.050;38.164;2023-01-28T11:27:30;3.21;66.95
75685;HTU21D;64298;46.050;38.164;2023-01-28T11:29:57;3.23;67.06
75685;HTU21D;64298;46.050;38.164;2023-01-28T11:32:28;3.25;67.11
75685;HTU21D;64298;46.050;38.164;2023-01-28T11:34:56;3.30;67.14
75685;HTU21D;64298;46.050;38.164;2023-01-28T11:37:24;3.32;67.17
75685;HTU21D;64298;46.050;38.164;2023-01-28T11:40:17;3.35;67.23
75685;HTU21D;64298;46.050;38.164;2023-01-28T11:42:46;3.38;67.18
75685;HTU21D;64298;46.050;38.164;2023-01-28T11:45:39;3.39;67.30
75685;HTU21D;64298;46.050;38.164;2023-01-28T11:51:29;3.44;67.41
75685;HTU21D;64298;46.050;38.164;2023-01-28T12:05:50;3.63;67.45
75685;HTU21D;64298;46.050;38.164;2023-01-28T12:17:04;3.75;67.43
75685;HTU21D;64298;46.050;38.164;2023-01-28T12:35:43;3.89;67.53
75685;HTU21D;64298;46.050;38.164;2023-01-28T12:41:02;3.93;67.59
75685;HTU21D;64298;46.050;38.164;2023-01-28T12:46:16;3.99;67.54
75685;HTU21D;64298;46.050;38.164;2023-01-28T12:51:41;4.04;67.46
75685;HTU21D;64298;46.050;38.164;2023-01-28T12:56:55;4.07;67.46
75685;HTU21D;64298;46.050;38.164;2023-01-28T12:59:28;4.10;67.43
75685;HTU21D;64298;46.050;38.164;2023-01-28T13:07:12;4.15;67.48
75685;HTU21D;64298;46.050;38.164;2023-01-28T13:09:47;4.17;67.59
75685;HTU21D;64298;46.050;38.164;2023-01-28T13:12:14;4.17;67.65
75685;HTU21D;64298;46.050;38.164;2023-01-28T13:14:41;4.18;67.79
75685;HTU21D;64298;46.050;38.164;2023-01-28T13:17:11;4.19;67.84
75685;HTU21D;64298;46.050;38.164;2023-01-28T13:19:40;4.19;67.97
75685;HTU21D;64298;46.050;38.164;2023-01-28T13:22:58;4.20;68.14
75685;HTU21D;64298;46.050;38.164;2023-01-28T13:25:21;4.20;68.29
75685;HTU21D;64298;46.050;38.164;2023-01-28T13:28:05;4.20;68.27
75685;HTU21D;64298;46.050;38.164;2023-01-28T13:30:46;4.20;68.31
75685;HTU21D;64298;46.050;38.164;2023-01-28T13:33:32;4.22;68.36
75685;HTU21D;64298;46.050;38.164;2023-01-28T13:36:05;4.21;68.39
75685;HTU21D;64298;46.050;38.164;2023-01-28T13:38:35;4.23;68.38
75685;HTU21D;64298;46.050;38.164;2023-01-28T13:41:01;4.23;68.41
75685;HTU21D;64298;46.050;38.164;2023-01-28T13:46:08;4.27;68.49
75685;HTU21D;64298;46.050;38.164;2023-01-28T13:48:45;4.27;68.49
75685;HTU21D;64298;46.050;38.164;2023-01-28T13:51:33;4.28;68.55
75685;HTU21D;64298;46.050;38.164;2023-01-28T13:54:16;4.27;68.49
75685;HTU21D;64298;46.050;38.164;2023-01-28T13:57:04;4.27;68.55
75685;HTU21D;64298;46.050;38.164;2023-01-28T14:16:54;4.27;68.96
75685;HTU21D;64298;46.050;38.164;2023-01-28T14:19:31;4.24;69.27
75685;HTU21D;64298;46.050;38.164;2023-01-28T14:21:58;4.23;69.38
75685;HTU21D;64298;46.050;38.164;2023-01-28T14:24:31;4.21;69.68
75685;HTU21D;64298;46.050;38.164;2023-01-28T14:29:40;4.19;70.12
75685;HTU21D;64298;46.050;38.164;2023-01-28T14:32:15;4.14;70.60
75685;HTU21D;64298;46.050;38.164;2023-01-28T14:34:43;4.14;70.63
75685;HTU21D;64298;46.050;38.164;2023-01-28T14:37:14;4.12;70.93
75685;HTU21D;64298;46.050;38.164;2023-01-28T14:39:51;4.07;71.44
75685;HTU21D;64298;46.050;38.164;2023-01-28T14:42:26;4.05;71.95
75685;HTU21D;64298;46.050;38.164;2023-01-28T14:47:58;4.02;72.25
75685;HTU21D;64298;46.050;38.164;2023-01-28T15:01:58;3.86;73.75
75685;HTU21D;64298;46.050;38.164;2023-01-28T15:04:29;3.85;74.00
75685;HTU21D;64298;46.050;38.164;2023-01-28T15:07:00;3.85;74.14
75685;HTU21D;64298;46.050;38.164;2023-01-28T15:09:26;3.85;74.38
75685;HTU21D;64298;46.050;38.164;2023-01-28T15:11:55;3.85;74.27
75685;HTU21D;64298;46.050;38.164;2023-01-28T15:14:41;3.84;74.47
75685;HTU21D;64298;46.050;38.164;2023-01-28T15:17:23;3.82;74.73
75685;HTU21D;64298;46.050;38.164;2023-01-28T15:19:53;3.82;74.80
75685;HTU21D;64298;46.050;38.164;2023-01-28T15:22:25;3.79;74.96
75685;HTU21D;64298;46.050;38.164;2023-01-28T15:25:22;3.77;75.31
75685;HTU21D;64298;46.050;38.164;2023-01-28T15:27:50;3.77;75.36
75685;HTU21D;64298;46.050;38.164;2023-01-28T15:30:29;3.75;75.42
75685;HTU21D;64298;46.050;38.164;2023-01-28T15:33:10;3.73;75.62
75685;HTU21D;64298;46.050;38.164;2023-01-28T15:35:44;3.74;75.78
75685;HTU21D;64298;46.050;38.164;2023-01-28T15:38:11;3.73;75.94
75685;HTU21D;64298;46.050;38.164;2023-01-28T15:40:42;3.73;76.06
75685;HTU21D;64298;46.050;38.164;2023-01-28T15:43:35;3.72;76.42
75685;HTU21D;64298;46.050;38.164;2023-01-28T15:46:01;3.70;76.57
75685;HTU21D;64298;46.050;38.164;2023-01-28T15:48:30;3.69;76.67
75685;HTU21D;64298;46.050;38.164;2023-01-28T15:51:02;3.71;76.79
75685;HTU21D;64298;46.050;38.164;2023-01-28T15:53:51;3.69;76.94
75685;HTU21D;64298;46.050;38.164;2023-01-28T15:56:25;3.69;77.01
75685;HTU21D;64298;46.050;38.164;2023-01-28T15:58:52;3.68;77.29
75685;HTU21D;64298;46.050;38.164;2023-01-28T16:01:19;3.65;77.72
75685;HTU21D;64298;46.050;38.164;2023-01-28T16:03:59;3.64;77.73
75685;HTU21D;64298;46.050;38.164;2023-01-28T16:06:44;3.65;77.77
75685;HTU21D;64298;46.050;38.164;2023-01-28T16:09:31;3.65;77.84
75685;HTU21D;64298;46.050;38.164;2023-01-28T16:12:10;3.67;77.97
75685;HTU21D;64298;46.050;38.164;2023-01-28T16:14:50;3.64;78.08
75685;HTU21D;64298;46.050;38.164;2023-01-28T16:17:26;3.65;78.24
75685;HTU21D;64298;46.050;38.164;2023-01-28T16:20:01;3.68;78.24
75685;HTU21D;64298;46.050;38.164;2023-01-28T16:22:34;3.68;78.30
75685;HTU21D;64298;46.050;38.164;2023-01-28T16:25:01;3.69;78.30
75685;HTU21D;64298;46.050;38.164;2023-01-28T16:27:28;3.69;78.34
75685;HTU21D;64298;46.050;38.164;2023-01-28T16:29:56;3.71;78.34
75685;HTU21D;64298;46.050;38.164;2023-01-28T16:32:40;3.73;78.33
75685;HTU21D;64298;46.050;38.164;2023-01-28T16:37:46;3.74;78.52
75685;HTU21D;64298;46.050;38.164;2023-01-28T16:40:15;3.75;78.60
75685;HTU21D;64298;46.050;38.164;2023-01-28T16:42:44;3.76;78.70
75685;HTU21D;64298;46.050;38.164;2023-01-28T16:45:24;3.76;78.98
75685;HTU21D;64298;46.050;38.164;2023-01-28T16:47:51;3.76;79.05
75685;HTU21D;64298;46.050;38.164;2023-01-28T16:50:18;3.77;79.22
75685;HTU21D;64298;46.050;38.164;2023-01-28T16:52:48;3.78;79.27
75685;HTU21D;64298;46.050;38.164;2023-01-28T16:55:17;3.80;79.17
75685;HTU21D;64298;46.050;38.164;2023-01-28T16:57:46;3.82;79.14
75685;HTU21D;64298;46.050;38.164;2023-01-28T17:00:23;3.84;79.27
75685;HTU21D;64298;46.050;38.164;2023-01-28T17:03:08;3.85;79.24
75685;HTU21D;64298;46.050;38.164;2023-01-28T17:05:35;3.86;79.25
75685;HTU21D;64298;46.050;38.164;2023-01-28T17:08:02;3.87;79.33
75685;HTU21D;64298;46.050;38.164;2023-01-28T17:10:28;3.88;79.40
75685;HTU21D;64298;46.050;38.164;2023-01-28T17:12:54;3.88;79.40
75685;HTU21D;64298;46.050;38.164;2023-01-28T17:15:20;3.89;79.50
75685;HTU21D;64298;46.050;38.164;2023-01-28T17:17:47;3.91;79.30
75685;HTU21D;64298;46.050;38.164;2023-01-28T17:20:32;3.92;79.30
75685;HTU21D;64298;46.050;38.164;2023-01-28T17:23:06;3.92;79.40
75685;HTU21D;64298;46.050;38.164;2023-01-28T17:25:40;3.92;79.39
75685;HTU21D;64298;46.050;38.164;2023-01-28T17:28:08;3.94;79.23
75685;HTU21D;64298;46.050;38.164;2023-01-28T17:30:34;3.98;79.04
75685;HTU21D;64298;46.050;38.164;2023-01-28T17:33:02;3.97;79.08
75685;HTU21D;64298;46.050;38.164;2023-01-28T17:35:29;3.99;79.08
75685;HTU21D;64298;46.050;38.164;2023-01-28T17:37:55;3.99;78.95
75685;HTU21D;64298;46.050;38.164;2023-01-28T17:40:22;4.02;78.82
75685;HTU21D;64298;46.050;38.164;2023-01-28T17:42:48;4.02;78.71
75685;HTU21D;64298;46.050;38.164;2023-01-28T17:45:14;4.04;78.64
75685;HTU21D;64298;46.050;38.164;2023-01-28T17:47:41;4.03;78.61
75685;HTU21D;64298;46.050;38.164;2023-01-28T17:50:08;4.05;78.56
75685;HTU21D;64298;46.050;38.164;2023-01-28T17:52:34;4.02;78.57
75685;HTU21D;64298;46.050;38.164;2023-01-28T17:55:00;4.05;78.53
75685;HTU21D;64298;46.050;38.164;2023-01-28T17:57:44;4.04;78.47
75685;HTU21D;64298;46.050;38.164;2023-01-28T18:00:10;4.07;78.34
75685;HTU21D;64298;46.050;38.164;2023-01-28T18:02:41;4.07;78.27